sensor_id;sensor_type;location;lat;lon;timestamp;P1;durP1;ratioP1;P2;durP2;ratioP2
76463;SDS011;65301;46.666;20.110;2024-02-23T00:00:16;6.20;;;3.85;;
76463;SDS011;65301;46.666;20.110;2024-02-23T00:03:19;3.90;;;3.20;;
76463;SDS011;65301;46.666;20.110;2024-02-23T00:06:21;3.87;;;3.10;;
76463;SDS011;65301;46.666;20.110;2024-02-23T00:09:28;4.80;;;3.53;;
76463;SDS011;65301;46.666;20.110;2024-02-23T00:12:30;7.07;;;4.28;;
76463;SDS011;65301;46.666;20.110;2024-02-23T00:15:32;5.82;;;3.42;;
76463;SDS011;65301;46.666;20.110;2024-02-23T00:18:34;5.00;;;3.60;;
76463;SDS011;65301;46.666;20.110;2024-02-23T00:21:39;5.87;;;3.50;;
76463;SDS011;65301;46.666;20.110;2024-02-23T00:24:43;4.55;;;3.38;;
76463;SDS011;65301;46.666;20.110;2024-02-23T00:27:45;6.50;;;3.17;;
76463;SDS011;65301;46.666;20.110;2024-02-23T00:30:48;4.50;;;3.75;;
76463;SDS011;65301;46.666;20.110;2024-02-23T00:33:50;4.07;;;3.43;;
76463;SDS011;65301;46.666;20.110;2024-02-23T00:36:52;4.47;;;3.10;;
76463;SDS011;65301;46.666;20.110;2024-02-23T00:39:54;4.38;;;2.97;;
76463;SDS011;65301;46.666;20.110;2024-02-23T00:42:56;4.05;;;2.83;;
76463;SDS011;65301;46.666;20.110;2024-02-23T00:45:57;5.45;;;3.03;;
76463;SDS011;65301;46.666;20.110;2024-02-23T00:48:59;4.77;;;3.03;;
76463;SDS011;65301;46.666;20.110;2024-02-23T00:52:01;3.73;;;3.00;;
76463;SDS011;65301;46.666;20.110;2024-02-23T00:55:03;4.22;;;2.80;;
76463;SDS011;65301;46.666;20.110;2024-02-23T00:58:06;4.03;;;3.00;;
76463;SDS011;65301;46.666;20.110;2024-02-23T01:01:07;2.90;;;2.65;;
76463;SDS011;65301;46.666;20.110;2024-02-23T01:04:10;3.00;;;2.70;;
76463;SDS011;65301;46.666;20.110;2024-02-23T01:07:11;4.10;;;2.77;;
76463;SDS011;65301;46.666;20.110;2024-02-23T01:10:13;3.42;;;2.47;;
76463;SDS011;65301;46.666;20.110;2024-02-23T01:13:15;3.70;;;2.97;;
76463;SDS011;65301;46.666;20.110;2024-02-23T01:16:17;4.53;;;2.78;;
76463;SDS011;65301;46.666;20.110;2024-02-23T01:19:19;3.97;;;3.07;;
76463;SDS011;65301;46.666;20.110;2024-02-23T01:22:21;5.10;;;2.73;;
76463;SDS011;65301;46.666;20.110;2024-02-23T01:25:23;2.85;;;2.65;;
76463;SDS011;65301;46.666;20.110;2024-02-23T01:28:24;2.67;;;2.47;;
76463;SDS011;65301;46.666;20.110;2024-02-23T01:31:26;2.85;;;2.40;;
76463;SDS011;65301;46.666;20.110;2024-02-23T01:34:28;2.97;;;2.27;;
76463;SDS011;65301;46.666;20.110;2024-02-23T01:37:30;3.93;;;2.63;;
76463;SDS011;65301;46.666;20.110;2024-02-23T01:40:32;2.78;;;2.33;;
76463;SDS011;65301;46.666;20.110;2024-02-23T01:43:33;3.10;;;2.63;;
76463;SDS011;65301;46.666;20.110;2024-02-23T01:46:35;3.05;;;2.25;;
76463;SDS011;65301;46.666;20.110;2024-02-23T01:49:38;2.70;;;2.43;;
76463;SDS011;65301;46.666;20.110;2024-02-23T01:52:40;3.00;;;2.17;;
76463;SDS011;65301;46.666;20.110;2024-02-23T01:55:42;3.05;;;2.05;;
76463;SDS011;65301;46.666;20.110;2024-02-23T01:58:45;3.92;;;2.38;;
76463;SDS011;65301;46.666;20.110;2024-02-23T02:01:47;2.50;;;2.30;;
76463;SDS011;65301;46.666;20.110;2024-02-23T02:04:49;3.23;;;2.50;;
76463;SDS011;65301;46.666;20.110;2024-02-23T02:07:51;3.37;;;2.23;;
76463;SDS011;65301;46.666;20.110;2024-02-23T02:11:00;3.10;;;2.35;;
76463;SDS011;65301;46.666;20.110;2024-02-23T02:14:02;3.22;;;2.75;;
76463;SDS011;65301;46.666;20.110;2024-02-23T02:17:04;5.13;;;2.58;;
76463;SDS011;65301;46.666;20.110;2024-02-23T02:20:08;3.40;;;2.30;;
76463;SDS011;65301;46.666;20.110;2024-02-23T02:23:13;3.23;;;2.73;;
76463;SDS011;65301;46.666;20.110;2024-02-23T02:26:16;3.05;;;2.85;;
76463;SDS011;65301;46.666;20.110;2024-02-23T02:29:18;3.10;;;2.75;;
76463;SDS011;65301;46.666;20.110;2024-02-23T02:32:20;3.72;;;2.70;;
76463;SDS011;65301;46.666;20.110;2024-02-23T02:35:21;3.23;;;2.93;;
76463;SDS011;65301;46.666;20.110;2024-02-23T02:38:23;3.37;;;3.03;;
76463;SDS011;65301;46.666;20.110;2024-02-23T02:41:27;3.75;;;3.17;;
76463;SDS011;65301;46.666;20.110;2024-02-23T02:44:31;3.50;;;3.10;;
76463;SDS011;65301;46.666;20.110;2024-02-23T02:47:33;4.30;;;3.00;;
76463;SDS011;65301;46.666;20.110;2024-02-23T02:50:36;4.43;;;3.17;;
76463;SDS011;65301;46.666;20.110;2024-02-23T02:53:38;3.30;;;2.97;;
76463;SDS011;65301;46.666;20.110;2024-02-23T02:56:43;3.92;;;3.10;;
76463;SDS011;65301;46.666;20.110;2024-02-23T02:59:45;3.40;;;2.67;;
76463;SDS011;65301;46.666;20.110;2024-02-23T03:02:47;3.67;;;3.15;;
76463;SDS011;65301;46.666;20.110;2024-02-23T03:05:49;4.60;;;3.00;;
76463;SDS011;65301;46.666;20.110;2024-02-23T03:08:51;3.73;;;3.30;;
76463;SDS011;65301;46.666;20.110;2024-02-23T03:11:53;6.43;;;2.75;;
76463;SDS011;65301;46.666;20.110;2024-02-23T03:14:55;4.10;;;3.10;;
76463;SDS011;65301;46.666;20.110;2024-02-23T03:17:57;6.00;;;3.42;;
76463;SDS011;65301;46.666;20.110;2024-02-23T03:20:59;4.20;;;2.97;;
76463;SDS011;65301;46.666;20.110;2024-02-23T03:24:00;3.80;;;3.10;;
76463;SDS011;65301;46.666;20.110;2024-02-23T03:27:02;3.50;;;3.05;;
76463;SDS011;65301;46.666;20.110;2024-02-23T03:30:05;5.60;;;3.20;;
76463;SDS011;65301;46.666;20.110;2024-02-23T03:33:09;4.70;;;3.42;;
76463;SDS011;65301;46.666;20.110;2024-02-23T03:36:11;3.67;;;3.30;;
76463;SDS011;65301;46.666;20.110;2024-02-23T03:39:13;3.30;;;3.00;;
76463;SDS011;65301;46.666;20.110;2024-02-23T03:42:15;4.35;;;3.40;;
76463;SDS011;65301;46.666;20.110;2024-02-23T03:45:17;5.38;;;3.38;;
76463;SDS011;65301;46.666;20.110;2024-02-23T03:48:19;3.35;;;3.05;;
76463;SDS011;65301;46.666;20.110;2024-02-23T03:51:21;3.40;;;3.10;;
76463;SDS011;65301;46.666;20.110;2024-02-23T03:54:22;3.60;;;2.80;;
76463;SDS011;65301;46.666;20.110;2024-02-23T03:57:24;4.47;;;3.50;;
76463;SDS011;65301;46.666;20.110;2024-02-23T04:00:26;4.13;;;3.13;;
76463;SDS011;65301;46.666;20.110;2024-02-23T04:03:28;6.35;;;3.92;;
76463;SDS011;65301;46.666;20.110;2024-02-23T04:06:30;4.47;;;2.97;;
76463;SDS011;65301;46.666;20.110;2024-02-23T04:09:32;5.07;;;3.27;;
76463;SDS011;65301;46.666;20.110;2024-02-23T04:12:34;4.72;;;3.15;;
76463;SDS011;65301;46.666;20.110;2024-02-23T04:15:36;4.00;;;3.30;;
76463;SDS011;65301;46.666;20.110;2024-02-23T04:18:37;7.63;;;4.20;;
76463;SDS011;65301;46.666;20.110;2024-02-23T04:21:39;5.03;;;4.03;;
76463;SDS011;65301;46.666;20.110;2024-02-23T04:24:41;6.37;;;3.80;;
76463;SDS011;65301;46.666;20.110;2024-02-23T04:27:43;5.57;;;3.33;;
76463;SDS011;65301;46.666;20.110;2024-02-23T04:30:45;6.13;;;3.63;;
76463;SDS011;65301;46.666;20.110;2024-02-23T04:33:46;5.10;;;3.85;;
76463;SDS011;65301;46.666;20.110;2024-02-23T04:36:48;4.67;;;3.50;;
76463;SDS011;65301;46.666;20.110;2024-02-23T04:39:50;5.10;;;3.50;;
76463;SDS011;65301;46.666;20.110;2024-02-23T04:42:52;5.18;;;4.10;;
76463;SDS011;65301;46.666;20.110;2024-02-23T04:45:54;5.90;;;4.38;;
76463;SDS011;65301;46.666;20.110;2024-02-23T04:48:56;5.53;;;3.88;;
76463;SDS011;65301;46.666;20.110;2024-02-23T04:51:58;5.57;;;3.50;;
76463;SDS011;65301;46.666;20.110;2024-02-23T04:55:00;5.60;;;4.03;;
76463;SDS011;65301;46.666;20.110;2024-02-23T04:58:02;7.38;;;4.68;;
76463;SDS011;65301;46.666;20.110;2024-02-23T05:01:04;7.63;;;4.05;;
76463;SDS011;65301;46.666;20.110;2024-02-23T05:04:06;5.40;;;4.38;;
76463;SDS011;65301;46.666;20.110;2024-02-23T05:07:08;4.50;;;4.10;;
76463;SDS011;65301;46.666;20.110;2024-02-23T05:10:10;5.57;;;4.40;;
76463;SDS011;65301;46.666;20.110;2024-02-23T05:13:12;5.60;;;4.25;;
76463;SDS011;65301;46.666;20.110;2024-02-23T05:16:14;6.10;;;3.95;;
76463;SDS011;65301;46.666;20.110;2024-02-23T05:19:16;4.43;;;3.97;;
76463;SDS011;65301;46.666;20.110;2024-02-23T05:22:18;5.20;;;4.40;;
76463;SDS011;65301;46.666;20.110;2024-02-23T05:25:20;6.43;;;4.30;;
76463;SDS011;65301;46.666;20.110;2024-02-23T05:28:22;6.10;;;4.30;;
76463;SDS011;65301;46.666;20.110;2024-02-23T05:31:46;6.00;;;4.20;;
76463;SDS011;65301;46.666;20.110;2024-02-23T05:34:48;6.97;;;4.30;;
76463;SDS011;65301;46.666;20.110;2024-02-23T05:37:53;7.73;;;4.70;;
76463;SDS011;65301;46.666;20.110;2024-02-23T05:40:54;6.57;;;5.03;;
76463;SDS011;65301;46.666;20.110;2024-02-23T05:43:56;5.35;;;4.82;;
76463;SDS011;65301;46.666;20.110;2024-02-23T05:46:58;6.70;;;5.05;;
76463;SDS011;65301;46.666;20.110;2024-02-23T05:50:00;7.22;;;4.85;;
76463;SDS011;65301;46.666;20.110;2024-02-23T05:53:04;7.13;;;5.50;;
76463;SDS011;65301;46.666;20.110;2024-02-23T05:56:06;7.57;;;5.13;;
76463;SDS011;65301;46.666;20.110;2024-02-23T05:59:08;7.78;;;5.93;;
76463;SDS011;65301;46.666;20.110;2024-02-23T06:02:10;8.23;;;5.90;;
76463;SDS011;65301;46.666;20.110;2024-02-23T06:05:12;8.23;;;5.53;;
76463;SDS011;65301;46.666;20.110;2024-02-23T06:08:14;9.00;;;5.40;;
76463;SDS011;65301;46.666;20.110;2024-02-23T06:11:16;8.37;;;5.80;;
76463;SDS011;65301;46.666;20.110;2024-02-23T06:14:18;10.55;;;6.05;;
76463;SDS011;65301;46.666;20.110;2024-02-23T06:17:20;9.82;;;6.30;;
76463;SDS011;65301;46.666;20.110;2024-02-23T06:20:22;10.27;;;6.68;;
76463;SDS011;65301;46.666;20.110;2024-02-23T06:23:23;12.57;;;7.27;;
76463;SDS011;65301;46.666;20.110;2024-02-23T06:26:25;11.93;;;7.67;;
76463;SDS011;65301;46.666;20.110;2024-02-23T06:29:27;11.48;;;7.35;;
76463;SDS011;65301;46.666;20.110;2024-02-23T06:32:29;15.70;;;8.27;;
76463;SDS011;65301;46.666;20.110;2024-02-23T06:35:31;13.18;;;7.72;;
76463;SDS011;65301;46.666;20.110;2024-02-23T06:38:34;12.53;;;8.53;;
76463;SDS011;65301;46.666;20.110;2024-02-23T06:41:37;12.73;;;7.07;;
76463;SDS011;65301;46.666;20.110;2024-02-23T06:44:40;11.32;;;6.95;;
76463;SDS011;65301;46.666;20.110;2024-02-23T06:47:44;15.27;;;6.95;;
76463;SDS011;65301;46.666;20.110;2024-02-23T06:50:46;10.98;;;6.75;;
76463;SDS011;65301;46.666;20.110;2024-02-23T06:53:48;12.37;;;7.00;;
76463;SDS011;65301;46.666;20.110;2024-02-23T06:56:50;10.37;;;7.00;;
76463;SDS011;65301;46.666;20.110;2024-02-23T06:59:52;11.30;;;7.32;;
76463;SDS011;65301;46.666;20.110;2024-02-23T07:02:54;10.50;;;6.32;;
76463;SDS011;65301;46.666;20.110;2024-02-23T07:05:56;16.08;;;8.93;;
76463;SDS011;65301;46.666;20.110;2024-02-23T07:08:58;10.33;;;7.37;;
76463;SDS011;65301;46.666;20.110;2024-02-23T07:12:00;9.13;;;6.13;;
76463;SDS011;65301;46.666;20.110;2024-02-23T07:15:02;9.93;;;6.97;;
76463;SDS011;65301;46.666;20.110;2024-02-23T07:18:04;11.27;;;6.85;;
76463;SDS011;65301;46.666;20.110;2024-02-23T07:21:06;11.90;;;7.70;;
76463;SDS011;65301;46.666;20.110;2024-02-23T07:24:08;10.57;;;7.33;;
76463;SDS011;65301;46.666;20.110;2024-02-23T07:27:10;10.13;;;7.43;;
76463;SDS011;65301;46.666;20.110;2024-02-23T07:30:12;13.18;;;7.30;;
76463;SDS011;65301;46.666;20.110;2024-02-23T07:33:14;9.75;;;6.57;;
76463;SDS011;65301;46.666;20.110;2024-02-23T07:36:17;10.90;;;7.40;;
76463;SDS011;65301;46.666;20.110;2024-02-23T07:39:19;9.83;;;7.07;;
76463;SDS011;65301;46.666;20.110;2024-02-23T07:42:26;11.13;;;6.73;;
76463;SDS011;65301;46.666;20.110;2024-02-23T07:45:29;11.93;;;7.07;;
76463;SDS011;65301;46.666;20.110;2024-02-23T07:48:31;10.30;;;6.80;;
76463;SDS011;65301;46.666;20.110;2024-02-23T07:51:33;11.45;;;7.32;;
76463;SDS011;65301;46.666;20.110;2024-02-23T07:54:35;14.57;;;7.43;;
76463;SDS011;65301;46.666;20.110;2024-02-23T07:57:37;12.50;;;7.50;;
76463;SDS011;65301;46.666;20.110;2024-02-23T08:00:41;9.88;;;7.15;;
76463;SDS011;65301;46.666;20.110;2024-02-23T08:03:42;17.73;;;10.07;;
76463;SDS011;65301;46.666;20.110;2024-02-23T08:06:44;55.00;;;24.27;;
76463;SDS011;65301;46.666;20.110;2024-02-23T08:09:46;12.23;;;8.67;;
76463;SDS011;65301;46.666;20.110;2024-02-23T08:12:49;12.60;;;8.20;;
76463;SDS011;65301;46.666;20.110;2024-02-23T08:15:50;13.60;;;8.82;;
76463;SDS011;65301;46.666;20.110;2024-02-23T08:18:52;12.82;;;7.90;;
76463;SDS011;65301;46.666;20.110;2024-02-23T08:21:54;15.13;;;8.38;;
76463;SDS011;65301;46.666;20.110;2024-02-23T08:24:56;51.60;;;26.50;;
76463;SDS011;65301;46.666;20.110;2024-02-23T08:27:58;17.87;;;13.43;;
76463;SDS011;65301;46.666;20.110;2024-02-23T08:31:00;11.60;;;8.60;;
76463;SDS011;65301;46.666;20.110;2024-02-23T08:34:02;14.68;;;10.27;;
76463;SDS011;65301;46.666;20.110;2024-02-23T08:37:04;11.82;;;7.90;;
76463;SDS011;65301;46.666;20.110;2024-02-23T08:40:06;9.33;;;6.40;;
76463;SDS011;65301;46.666;20.110;2024-02-23T08:43:09;14.20;;;8.23;;
76463;SDS011;65301;46.666;20.110;2024-02-23T08:46:11;11.35;;;7.82;;
76463;SDS011;65301;46.666;20.110;2024-02-23T08:49:12;10.30;;;6.30;;
76463;SDS011;65301;46.666;20.110;2024-02-23T08:52:14;12.25;;;8.02;;
76463;SDS011;65301;46.666;20.110;2024-02-23T08:55:16;12.60;;;8.17;;
76463;SDS011;65301;46.666;20.110;2024-02-23T08:58:19;11.23;;;6.93;;
76463;SDS011;65301;46.666;20.110;2024-02-23T09:01:21;9.93;;;7.03;;
76463;SDS011;65301;46.666;20.110;2024-02-23T09:04:25;12.70;;;8.30;;
76463;SDS011;65301;46.666;20.110;2024-02-23T09:07:27;13.25;;;9.07;;
76463;SDS011;65301;46.666;20.110;2024-02-23T09:10:29;14.20;;;8.03;;
76463;SDS011;65301;46.666;20.110;2024-02-23T09:13:31;13.07;;;9.00;;
76463;SDS011;65301;46.666;20.110;2024-02-23T09:16:33;11.98;;;8.00;;
76463;SDS011;65301;46.666;20.110;2024-02-23T09:19:35;10.95;;;8.00;;
76463;SDS011;65301;46.666;20.110;2024-02-23T09:22:38;12.07;;;7.78;;
76463;SDS011;65301;46.666;20.110;2024-02-23T09:25:40;11.37;;;7.83;;
76463;SDS011;65301;46.666;20.110;2024-02-23T09:28:44;15.40;;;8.43;;
76463;SDS011;65301;46.666;20.110;2024-02-23T09:31:47;12.38;;;8.10;;
76463;SDS011;65301;46.666;20.110;2024-02-23T09:34:49;11.32;;;7.38;;
76463;SDS011;65301;46.666;20.110;2024-02-23T09:37:51;9.90;;;7.25;;
76463;SDS011;65301;46.666;20.110;2024-02-23T09:40:54;11.23;;;7.23;;
76463;SDS011;65301;46.666;20.110;2024-02-23T09:43:58;11.00;;;7.67;;
76463;SDS011;65301;46.666;20.110;2024-02-23T09:47:03;11.40;;;7.32;;
76463;SDS011;65301;46.666;20.110;2024-02-23T09:50:10;11.35;;;7.53;;
76463;SDS011;65301;46.666;20.110;2024-02-23T09:53:13;11.35;;;7.22;;
76463;SDS011;65301;46.666;20.110;2024-02-23T09:56:15;11.40;;;7.43;;
76463;SDS011;65301;46.666;20.110;2024-02-23T09:59:21;11.47;;;7.50;;
76463;SDS011;65301;46.666;20.110;2024-02-23T10:02:24;11.55;;;7.93;;
76463;SDS011;65301;46.666;20.110;2024-02-23T10:05:30;9.30;;;6.90;;
76463;SDS011;65301;46.666;20.110;2024-02-23T10:08:40;11.13;;;7.47;;
76463;SDS011;65301;46.666;20.110;2024-02-23T10:11:45;10.50;;;7.83;;
76463;SDS011;65301;46.666;20.110;2024-02-23T10:15:15;10.03;;;7.17;;
76463;SDS011;65301;46.666;20.110;2024-02-23T10:18:17;11.07;;;6.97;;
76463;SDS011;65301;46.666;20.110;2024-02-23T10:21:20;9.52;;;6.43;;
76463;SDS011;65301;46.666;20.110;2024-02-23T10:24:22;9.73;;;7.20;;
76463;SDS011;65301;46.666;20.110;2024-02-23T10:27:25;8.70;;;6.70;;
76463;SDS011;65301;46.666;20.110;2024-02-23T10:30:28;10.47;;;7.23;;
76463;SDS011;65301;46.666;20.110;2024-02-23T10:33:29;8.75;;;6.55;;
76463;SDS011;65301;46.666;20.110;2024-02-23T10:36:32;8.63;;;6.78;;
76463;SDS011;65301;46.666;20.110;2024-02-23T10:39:37;9.95;;;6.47;;
76463;SDS011;65301;46.666;20.110;2024-02-23T10:42:40;8.37;;;6.30;;
76463;SDS011;65301;46.666;20.110;2024-02-23T10:45:52;8.33;;;5.87;;
76463;SDS011;65301;46.666;20.110;2024-02-23T10:48:54;8.32;;;6.28;;
76463;SDS011;65301;46.666;20.110;2024-02-23T10:51:58;8.68;;;6.50;;
76463;SDS011;65301;46.666;20.110;2024-02-23T10:55:00;11.38;;;6.38;;
76463;SDS011;65301;46.666;20.110;2024-02-23T10:58:08;9.03;;;6.80;;
76463;SDS011;65301;46.666;20.110;2024-02-23T11:01:13;10.10;;;6.50;;
76463;SDS011;65301;46.666;20.110;2024-02-23T11:04:16;10.25;;;6.60;;
76463;SDS011;65301;46.666;20.110;2024-02-23T11:07:19;11.95;;;8.20;;
76463;SDS011;65301;46.666;20.110;2024-02-23T11:10:22;10.05;;;7.82;;
76463;SDS011;65301;46.666;20.110;2024-02-23T11:13:30;11.30;;;7.23;;
76463;SDS011;65301;46.666;20.110;2024-02-23T11:16:38;11.83;;;7.37;;
76463;SDS011;65301;46.666;20.110;2024-02-23T11:19:41;10.23;;;7.60;;
76463;SDS011;65301;46.666;20.110;2024-02-23T11:22:47;10.45;;;6.93;;
76463;SDS011;65301;46.666;20.110;2024-02-23T11:29:11;9.23;;;6.97;;
76463;SDS011;65301;46.666;20.110;2024-02-23T11:32:17;10.43;;;6.83;;
76463;SDS011;65301;46.666;20.110;2024-02-23T11:35:19;8.43;;;6.50;;
76463;SDS011;65301;46.666;20.110;2024-02-23T11:38:26;10.35;;;7.88;;
76463;SDS011;65301;46.666;20.110;2024-02-23T11:41:29;9.20;;;7.22;;
76463;SDS011;65301;46.666;20.110;2024-02-23T11:44:31;8.97;;;7.20;;
76463;SDS011;65301;46.666;20.110;2024-02-23T11:47:33;10.53;;;7.13;;
76463;SDS011;65301;46.666;20.110;2024-02-23T11:50:35;9.30;;;7.15;;
76463;SDS011;65301;46.666;20.110;2024-02-23T11:53:37;10.77;;;7.85;;
76463;SDS011;65301;46.666;20.110;2024-02-23T11:56:40;11.50;;;7.45;;
76463;SDS011;65301;46.666;20.110;2024-02-23T11:59:42;11.67;;;7.13;;
76463;SDS011;65301;46.666;20.110;2024-02-23T12:02:46;10.80;;;7.50;;
76463;SDS011;65301;46.666;20.110;2024-02-23T12:05:50;9.27;;;7.68;;
76463;SDS011;65301;46.666;20.110;2024-02-23T12:08:53;11.90;;;8.20;;
76463;SDS011;65301;46.666;20.110;2024-02-23T12:11:55;11.88;;;7.53;;
76463;SDS011;65301;46.666;20.110;2024-02-23T12:14:57;10.30;;;6.57;;
76463;SDS011;65301;46.666;20.110;2024-02-23T12:17:59;11.00;;;6.63;;
76463;SDS011;65301;46.666;20.110;2024-02-23T12:21:02;8.65;;;6.88;;
76463;SDS011;65301;46.666;20.110;2024-02-23T12:24:06;8.02;;;5.72;;
76463;SDS011;65301;46.666;20.110;2024-02-23T12:27:11;8.32;;;6.25;;
76463;SDS011;65301;46.666;20.110;2024-02-23T12:30:20;8.03;;;5.93;;
76463;SDS011;65301;46.666;20.110;2024-02-23T12:33:22;8.77;;;6.20;;
76463;SDS011;65301;46.666;20.110;2024-02-23T12:36:24;6.55;;;5.45;;
76463;SDS011;65301;46.666;20.110;2024-02-23T12:39:29;10.05;;;6.80;;
76463;SDS011;65301;46.666;20.110;2024-02-23T12:43:04;11.65;;;6.85;;
76463;SDS011;65301;46.666;20.110;2024-02-23T12:46:06;7.60;;;6.20;;
76463;SDS011;65301;46.666;20.110;2024-02-23T12:49:09;8.83;;;7.70;;
76463;SDS011;65301;46.666;20.110;2024-02-23T12:52:12;8.43;;;7.10;;
76463;SDS011;65301;46.666;20.110;2024-02-23T12:55:16;12.40;;;6.65;;
76463;SDS011;65301;46.666;20.110;2024-02-23T12:58:18;10.55;;;6.20;;
76463;SDS011;65301;46.666;20.110;2024-02-23T13:01:20;11.87;;;7.00;;
76463;SDS011;65301;46.666;20.110;2024-02-23T13:04:30;7.53;;;5.63;;
76463;SDS011;65301;46.666;20.110;2024-02-23T13:07:32;8.52;;;6.25;;
76463;SDS011;65301;46.666;20.110;2024-02-23T13:10:34;13.27;;;9.65;;
76463;SDS011;65301;46.666;20.110;2024-02-23T13:13:36;23.25;;;18.67;;
76463;SDS011;65301;46.666;20.110;2024-02-23T13:16:40;9.20;;;7.10;;
76463;SDS011;65301;46.666;20.110;2024-02-23T13:19:42;6.70;;;5.87;;
76463;SDS011;65301;46.666;20.110;2024-02-23T13:22:57;7.78;;;5.13;;
76463;SDS011;65301;46.666;20.110;2024-02-23T13:25:59;6.78;;;5.90;;
76463;SDS011;65301;46.666;20.110;2024-02-23T13:29:04;7.80;;;6.10;;
76463;SDS011;65301;46.666;20.110;2024-02-23T13:32:06;8.90;;;5.90;;
76463;SDS011;65301;46.666;20.110;2024-02-23T13:35:11;8.50;;;5.50;;
76463;SDS011;65301;46.666;20.110;2024-02-23T13:38:13;9.35;;;6.05;;
76463;SDS011;65301;46.666;20.110;2024-02-23T13:41:15;8.43;;;5.82;;
76463;SDS011;65301;46.666;20.110;2024-02-23T13:44:17;8.23;;;6.18;;
76463;SDS011;65301;46.666;20.110;2024-02-23T13:47:18;9.93;;;6.43;;
76463;SDS011;65301;46.666;20.110;2024-02-23T13:50:20;7.70;;;5.83;;
76463;SDS011;65301;46.666;20.110;2024-02-23T13:53:23;11.70;;;5.70;;
76463;SDS011;65301;46.666;20.110;2024-02-23T13:56:25;9.20;;;5.95;;
76463;SDS011;65301;46.666;20.110;2024-02-23T13:59:29;9.05;;;5.60;;
76463;SDS011;65301;46.666;20.110;2024-02-23T14:02:30;9.60;;;5.70;;
76463;SDS011;65301;46.666;20.110;2024-02-23T14:05:34;8.00;;;5.73;;
76463;SDS011;65301;46.666;20.110;2024-02-23T14:08:37;9.35;;;5.72;;
76463;SDS011;65301;46.666;20.110;2024-02-23T14:11:39;10.00;;;7.25;;
76463;SDS011;65301;46.666;20.110;2024-02-23T14:14:41;10.55;;;5.97;;
76463;SDS011;65301;46.666;20.110;2024-02-23T14:17:44;7.37;;;5.30;;
76463;SDS011;65301;46.666;20.110;2024-02-23T14:20:46;8.47;;;5.50;;
76463;SDS011;65301;46.666;20.110;2024-02-23T14:23:48;8.77;;;5.65;;
76463;SDS011;65301;46.666;20.110;2024-02-23T14:26:50;8.07;;;5.72;;
76463;SDS011;65301;46.666;20.110;2024-02-23T14:29:52;7.25;;;4.97;;
76463;SDS011;65301;46.666;20.110;2024-02-23T14:32:54;9.73;;;5.90;;
76463;SDS011;65301;46.666;20.110;2024-02-23T14:35:56;6.90;;;4.87;;
76463;SDS011;65301;46.666;20.110;2024-02-23T14:38:58;5.95;;;4.75;;
76463;SDS011;65301;46.666;20.110;2024-02-23T14:42:00;8.02;;;5.50;;
76463;SDS011;65301;46.666;20.110;2024-02-23T14:45:38;5.82;;;5.18;;
76463;SDS011;65301;46.666;20.110;2024-02-23T14:48:40;7.73;;;5.20;;
76463;SDS011;65301;46.666;20.110;2024-02-23T14:51:42;8.77;;;5.60;;
76463;SDS011;65301;46.666;20.110;2024-02-23T14:54:44;6.00;;;4.90;;
76463;SDS011;65301;46.666;20.110;2024-02-23T14:57:46;9.52;;;6.50;;
76463;SDS011;65301;46.666;20.110;2024-02-23T15:00:48;6.22;;;5.38;;
76463;SDS011;65301;46.666;20.110;2024-02-23T15:03:50;8.30;;;5.63;;
76463;SDS011;65301;46.666;20.110;2024-02-23T15:06:52;9.33;;;5.20;;
76463;SDS011;65301;46.666;20.110;2024-02-23T15:09:54;7.90;;;5.72;;
76463;SDS011;65301;46.666;20.110;2024-02-23T15:12:56;9.50;;;5.60;;
76463;SDS011;65301;46.666;20.110;2024-02-23T15:15:58;8.25;;;5.60;;
76463;SDS011;65301;46.666;20.110;2024-02-23T15:19:01;8.80;;;5.60;;
76463;SDS011;65301;46.666;20.110;2024-02-23T15:22:15;9.97;;;5.50;;
76463;SDS011;65301;46.666;20.110;2024-02-23T15:25:19;16.85;;;9.10;;
76463;SDS011;65301;46.666;20.110;2024-02-23T15:28:21;11.48;;;6.82;;
76463;SDS011;65301;46.666;20.110;2024-02-23T15:31:24;7.88;;;5.63;;
76463;SDS011;65301;46.666;20.110;2024-02-23T15:34:26;7.37;;;5.33;;
76463;SDS011;65301;46.666;20.110;2024-02-23T15:37:31;6.93;;;5.30;;
76463;SDS011;65301;46.666;20.110;2024-02-23T15:40:33;9.80;;;5.80;;
76463;SDS011;65301;46.666;20.110;2024-02-23T15:43:35;7.35;;;5.30;;
76463;SDS011;65301;46.666;20.110;2024-02-23T15:46:36;7.00;;;5.25;;
76463;SDS011;65301;46.666;20.110;2024-02-23T15:49:38;9.90;;;6.20;;
76463;SDS011;65301;46.666;20.110;2024-02-23T15:53:01;40.07;;;23.30;;
76463;SDS011;65301;46.666;20.110;2024-02-23T15:56:06;17.85;;;10.02;;
76463;SDS011;65301;46.666;20.110;2024-02-23T15:59:08;12.80;;;7.55;;
76463;SDS011;65301;46.666;20.110;2024-02-23T16:02:10;10.65;;;7.28;;
76463;SDS011;65301;46.666;20.110;2024-02-23T16:05:12;10.77;;;7.20;;
76463;SDS011;65301;46.666;20.110;2024-02-23T16:08:14;10.03;;;6.80;;
76463;SDS011;65301;46.666;20.110;2024-02-23T16:11:16;10.38;;;6.60;;
76463;SDS011;65301;46.666;20.110;2024-02-23T16:14:18;11.45;;;7.70;;
76463;SDS011;65301;46.666;20.110;2024-02-23T16:17:20;12.48;;;6.90;;
76463;SDS011;65301;46.666;20.110;2024-02-23T16:20:23;10.77;;;6.63;;
76463;SDS011;65301;46.666;20.110;2024-02-23T16:23:25;10.47;;;7.17;;
76463;SDS011;65301;46.666;20.110;2024-02-23T16:26:27;11.27;;;6.53;;
76463;SDS011;65301;46.666;20.110;2024-02-23T16:29:29;8.80;;;6.65;;
76463;SDS011;65301;46.666;20.110;2024-02-23T16:32:32;10.68;;;6.75;;
76463;SDS011;65301;46.666;20.110;2024-02-23T16:35:34;11.97;;;7.40;;
76463;SDS011;65301;46.666;20.110;2024-02-23T16:38:36;12.70;;;6.60;;
76463;SDS011;65301;46.666;20.110;2024-02-23T16:41:38;10.60;;;7.43;;
76463;SDS011;65301;46.666;20.110;2024-02-23T16:44:40;10.00;;;6.82;;
76463;SDS011;65301;46.666;20.110;2024-02-23T16:47:43;8.50;;;6.75;;
76463;SDS011;65301;46.666;20.110;2024-02-23T16:50:45;10.73;;;6.97;;
76463;SDS011;65301;46.666;20.110;2024-02-23T16:53:48;10.57;;;7.47;;
76463;SDS011;65301;46.666;20.110;2024-02-23T16:56:50;13.68;;;8.65;;
76463;SDS011;65301;46.666;20.110;2024-02-23T16:59:52;16.58;;;9.60;;
76463;SDS011;65301;46.666;20.110;2024-02-23T17:02:54;13.98;;;9.70;;
76463;SDS011;65301;46.666;20.110;2024-02-23T17:05:56;14.67;;;9.13;;
76463;SDS011;65301;46.666;20.110;2024-02-23T17:08:58;16.63;;;9.70;;
76463;SDS011;65301;46.666;20.110;2024-02-23T17:12:00;13.70;;;7.88;;
76463;SDS011;65301;46.666;20.110;2024-02-23T17:15:02;12.00;;;8.30;;
76463;SDS011;65301;46.666;20.110;2024-02-23T17:18:04;14.77;;;9.55;;
76463;SDS011;65301;46.666;20.110;2024-02-23T17:21:06;14.17;;;8.83;;
76463;SDS011;65301;46.666;20.110;2024-02-23T17:24:08;11.57;;;7.80;;
76463;SDS011;65301;46.666;20.110;2024-02-23T17:27:10;12.68;;;8.38;;
76463;SDS011;65301;46.666;20.110;2024-02-23T17:30:11;13.52;;;8.73;;
76463;SDS011;65301;46.666;20.110;2024-02-23T17:33:14;12.73;;;7.57;;
76463;SDS011;65301;46.666;20.110;2024-02-23T17:36:17;12.40;;;8.93;;
76463;SDS011;65301;46.666;20.110;2024-02-23T17:39:19;11.33;;;7.23;;
76463;SDS011;65301;46.666;20.110;2024-02-23T17:42:21;11.18;;;6.93;;
76463;SDS011;65301;46.666;20.110;2024-02-23T17:45:23;15.45;;;7.50;;
76463;SDS011;65301;46.666;20.110;2024-02-23T17:48:25;12.00;;;6.80;;
76463;SDS011;65301;46.666;20.110;2024-02-23T17:51:27;12.37;;;7.33;;
76463;SDS011;65301;46.666;20.110;2024-02-23T17:54:29;11.67;;;6.40;;
76463;SDS011;65301;46.666;20.110;2024-02-23T17:57:31;11.50;;;7.70;;
76463;SDS011;65301;46.666;20.110;2024-02-23T18:00:33;11.60;;;8.05;;